Time;durP1;ratioP1;P1;durP2;ratioP2;P2;SDS_P1;SDS_P2;PMS_P1;PMS_P2;Temp;Humidity;BMP_temperature;BMP_pressure;BME280_temperature;BME280_humidity;BME280_pressure;Samples;Min_cycle;Max_cycle;Signal;HPM_P1;HPM_P2
2022/02/13 00:02:12;;;;;;;;;34.75;32.25;;;;;3.55;63.76;101887.22;5052658;28;45328;-73
2022/02/13 00:04:38;;;;;;;;;36.00;26.67;;;;;3.53;63.99;101884.63;5054081;28;45407;-71
2022/02/13 00:07:03;;;;;;;;;30.75;28.00;;;;;3.53;64.41;101892.41;5053105;28;45340;-73
2022/02/13 00:09:30;;;;;;;;;33.75;27.75;;;;;3.47;64.34;101874.19;5052748;28;45424;-73
2022/02/13 00:11:56;;;;;;;;;26.50;20.75;;;;;3.49;64.71;101866.41;5052442;28;45372;-73
2022/02/13 00:14:21;;;;;;;;;25.50;21.00;;;;;3.50;64.51;101862.94;5052941;28;46267;-73
2022/02/13 00:16:47;;;;;;;;;29.50;25.25;;;;;3.52;64.17;101861.22;5057320;28;45307;-73
2022/02/13 00:19:12;;;;;;;;;29.50;24.00;;;;;3.51;64.26;101854.28;5055919;28;45963;-73
2022/02/13 00:21:38;;;;;;;;;28.00;21.00;;;;;3.51;64.80;101854.28;5056074;28;46606;-73
2022/02/13 00:24:03;;;;;;;;;24.25;21.25;;;;;3.50;64.47;101840.44;5056095;28;46989;-73
2022/02/13 00:26:29;;;;;;;;;26.50;23.25;;;;;3.51;64.78;101846.50;5057265;28;45394;-73
2022/02/13 00:28:54;;;;;;;;;36.00;27.00;;;;;3.48;64.50;101833.47;5057248;28;45339;-73
2022/02/13 00:31:20;;;;;;;;;26.50;22.50;;;;;3.47;64.68;101832.63;5055485;28;45280;-73
2022/02/13 00:33:45;;;;;;;;;29.75;27.00;;;;;3.46;64.55;101837.81;5055748;28;45320;-73
2022/02/13 00:36:10;;;;;;;;;30.00;24.75;;;;;3.40;64.48;101821.34;5056167;28;45255;-73
2022/02/13 00:38:36;;;;;;;;;23.00;20.75;;;;;3.43;65.07;101823.06;5054722;28;45446;-73
2022/02/13 00:41:01;;;;;;;;;24.00;21.00;;;;;3.41;64.78;101806.63;5057479;28;45408;-73
2022/02/13 00:43:26;;;;;;;;;28.25;22.25;;;;;3.37;64.58;101803.13;5055751;28;45332;-73
2022/02/13 00:45:52;;;;;;;;;26.67;18.00;;;;;3.33;64.86;101798.78;5054897;28;45451;-73
2022/02/13 00:48:17;;;;;;;;;25.75;24.50;;;;;3.30;64.63;101801.38;5056159;28;45472;-73
2022/02/13 00:50:45;;;;;;;;;31.75;28.50;;;;;3.27;64.72;101795.28;5055527;28;45395;-73
2022/02/13 00:53:11;;;;;;;;;36.50;30.00;;;;;3.23;64.69;101790.94;5056212;28;46108;-73
2022/02/13 00:55:36;;;;;;;;;33.00;21.75;;;;;3.22;65.12;101782.28;5056482;28;45850;-73
2022/02/13 00:58:02;;;;;;;;;28.75;25.75;;;;;3.18;65.10;101783.13;5055456;28;45606;-73
2022/02/13 01:00:28;;;;;;;;;49.25;34.25;;;;;3.14;64.76;101773.59;5054944;28;45494;-73
2022/02/13 01:02:53;;;;;;;;;38.50;29.75;;;;;3.14;65.24;101778.81;5055261;28;46284;-73
2022/02/13 01:05:18;;;;;;;;;37.75;25.50;;;;;3.12;64.83;101778.78;5054751;28;45487;-73
2022/02/13 01:07:44;;;;;;;;;59.25;47.00;;;;;3.08;65.03;101774.44;5057201;28;45750;-73
2022/02/13 01:10:10;;;;;;;;;57.75;45.25;;;;;3.04;65.21;101772.69;5055782;28;45399;-73
2022/02/13 01:12:36;;;;;;;;;58.75;46.25;;;;;3.02;65.05;101768.34;5055381;28;45293;-73
2022/02/13 01:15:02;;;;;;;;;65.25;48.25;;;;;3.01;65.04;101766.59;5054679;28;45459;-73
2022/02/13 01:17:28;;;;;;;;;59.75;46.25;;;;;2.98;65.19;101761.41;5038377;28;45441;-73
2022/02/13 01:19:53;;;;;;;;;63.75;46.25;;;;;2.97;65.30;101765.72;5056962;28;45295;-73
2022/02/13 01:22:18;;;;;;;;;66.00;49.33;;;;;2.93;65.16;101761.41;5055226;28;45343;-73
2022/02/13 01:24:44;;;;;;;;;62.00;48.00;;;;;2.85;65.43;101748.34;5054782;28;45478;-73
2022/02/13 01:27:09;;;;;;;;;63.75;48.75;;;;;2.90;65.45;101750.97;5054741;28;45414;-73
2022/02/13 01:29:35;;;;;;;;;63.00;48.25;;;;;2.89;65.45;101757.03;5054913;28;45727;-73
2022/02/13 01:32:00;;;;;;;;;55.50;48.00;;;;;2.84;65.63;101751.81;5056974;28;47155;-73
2022/02/13 01:34:27;;;;;;;;;70.33;51.33;;;;;2.87;65.76;101750.94;5054882;28;52367;-73
2022/02/13 01:36:53;;;;;;;;;58.50;47.50;;;;;2.85;66.01;101750.09;5054661;28;45386;-73
2022/02/13 01:39:18;;;;;;;;;71.00;44.25;;;;;2.82;65.83;101750.97;5055685;28;45389;-73
2022/02/13 01:41:49;;;;;;;;;56.33;46.00;;;;;2.82;65.77;101745.75;5054945;28;48316;-73
2022/02/13 01:44:29;;;;;;;;;55.25;43.00;;;;;2.82;66.18;101750.09;5054697;28;46041;-73
2022/02/13 01:46:55;;;;;;;;;59.25;46.25;;;;;2.79;65.82;101740.53;5056603;28;45476;-73
2022/02/13 01:49:21;;;;;;;;;58.75;43.25;;;;;2.80;66.05;101744.00;5054883;28;45397;-73
2022/02/13 01:51:47;;;;;;;;;55.25;46.00;;;;;2.81;66.04;101743.13;5054290;28;46156;-73
2022/02/13 01:54:13;;;;;;;;;65.75;46.00;;;;;2.78;66.37;101741.41;5054693;28;45399;-73
2022/02/13 01:56:38;;;;;;;;;61.00;45.25;;;;;2.81;66.38;101745.72;5055877;28;45567;-73
2022/02/13 01:59:05;;;;;;;;;35.00;27.75;;;;;2.79;66.33;101745.72;5054946;28;45350;-73
2022/02/13 02:01:30;;;;;;;;;52.75;41.00;;;;;2.79;66.36;101742.28;5069691;28;46138;-73
2022/02/13 02:03:56;;;;;;;;;40.50;29.75;;;;;2.78;66.54;101740.53;5054177;28;45791;-73
2022/02/13 02:06:21;;;;;;;;;36.75;29.25;;;;;2.77;66.33;101744.88;5054054;28;45476;-73
2022/02/13 02:08:46;;;;;;;;;36.50;25.75;;;;;2.78;66.36;101745.75;5054976;28;45748;-73
2022/02/13 02:11:12;;;;;;;;;30.00;26.67;;;;;2.76;66.18;101744.84;5055070;28;46466;-73
2022/02/13 02:13:37;;;;;;;;;27.50;24.50;;;;;2.75;66.11;101743.97;5055257;28;45404;-73
2022/02/13 02:16:03;;;;;;;;;29.75;22.25;;;;;2.75;66.23;101740.53;5054494;28;45538;-72
2022/02/13 02:18:28;;;;;;;;;24.75;23.00;;;;;2.70;66.57;101724.91;5054550;28;45261;-73
2022/02/13 02:20:56;;;;;;;;;28.75;24.25;;;;;2.68;66.52;101721.47;5053617;28;45522;-73
2022/02/13 02:23:22;;;;;;;;;26.25;18.00;;;;;2.65;66.73;101708.44;5053387;28;45367;-73
2022/02/13 02:25:47;;;;;;;;;27.25;20.50;;;;;2.64;66.75;101713.66;5056171;28;45469;-73
2022/02/13 02:28:12;;;;;;;;;27.00;23.50;;;;;2.64;66.74;101696.34;5052575;28;45416;-73
2022/02/13 02:30:38;;;;;;;;;25.33;15.67;;;;;2.68;66.58;101690.31;5054358;28;46049;-73
2022/02/13 02:33:04;;;;;;;;;19.75;16.75;;;;;2.68;66.30;101684.25;5054225;28;45568;-73
2022/02/13 02:35:30;;;;;;;;;14.75;12.00;;;;;2.67;66.38;101672.16;5053196;28;47221;-73
2022/02/13 02:37:56;;;;;;;;;16.75;14.25;;;;;2.65;66.50;101661.75;5055335;28;45321;-72
2022/02/13 02:40:21;;;;;;;;;17.00;16.50;;;;;2.64;66.71;101654.81;5053189;28;46057;-73
2022/02/13 02:42:47;;;;;;;;;27.75;21.50;;;;;2.60;66.66;101653.94;5053365;28;45342;-73
2022/02/13 02:45:14;;;;;;;;;23.00;20.75;;;;;2.57;66.64;101645.28;5053204;28;45415;-73
2022/02/13 02:47:42;;;;;;;;;21.50;16.75;;;;;2.55;66.88;101639.19;5053142;28;45498;-73
2022/02/13 02:50:09;;;;;;;;;23.75;18.25;;;;;2.53;66.96;101638.34;5055243;28;46016;-73
2022/02/13 02:52:34;;;;;;;;;24.75;19.00;;;;;2.52;67.06;101641.81;5054968;28;45495;-73
2022/02/13 02:55:00;;;;;;;;;22.75;21.25;;;;;2.50;66.91;101643.50;5053921;28;45495;-73
2022/02/13 02:57:26;;;;;;;;;23.00;19.00;;;;;2.50;67.28;101643.50;5053344;28;45406;-73
2022/02/13 02:59:52;;;;;;;;;22.50;18.00;;;;;2.48;67.20;101635.72;5053931;28;45893;-73
2022/02/13 03:02:17;;;;;;;;;18.25;16.25;;;;;2.45;67.08;101632.22;5053523;28;45539;-73
2022/02/13 03:04:42;;;;;;;;;26.75;19.25;;;;;2.46;67.19;101631.41;5054013;28;45730;-73
2022/02/13 03:07:08;;;;;;;;;24.33;17.33;;;;;2.45;66.85;101640.88;5053950;28;45513;-73
2022/02/13 03:09:33;;;;;;;;;21.75;18.75;;;;;2.45;67.37;101629.63;5053120;28;46159;-73
2022/02/13 03:11:58;;;;;;;;;21.67;18.33;;;;;2.42;67.52;101635.69;5052854;28;45364;-73
2022/02/13 03:14:24;;;;;;;;;35.00;19.00;;;;;2.39;67.27;101632.22;5052172;28;52047;-73
2022/02/13 03:16:49;;;;;;;;;20.67;17.33;;;;;2.40;66.94;101639.13;5054102;28;45372;-73
2022/02/13 03:19:15;;;;;;;;;23.50;22.50;;;;;2.38;67.52;101631.34;5053190;28;47176;-73
2022/02/13 03:21:40;;;;;;;;;24.00;16.75;;;;;2.36;67.06;101630.47;5053307;28;45414;-73
2022/02/13 03:24:07;;;;;;;;;16.00;15.67;;;;;2.35;67.50;101634.81;5052444;28;45362;-73
2022/02/13 03:26:33;;;;;;;;;24.75;19.75;;;;;2.32;67.15;101621.81;5053246;28;45420;-73
2022/02/13 03:28:58;;;;;;;;;18.75;17.50;;;;;2.33;67.46;101617.47;5055815;28;46182;-73
2022/02/13 03:31:23;;;;;;;;;18.75;17.50;;;;;2.31;67.25;101614.03;5053082;28;45419;-73
2022/02/13 03:33:49;;;;;;;;;27.00;19.75;;;;;2.31;67.62;101614.88;5053328;28;45452;-73
2022/02/13 03:36:14;;;;;;;;;18.00;16.00;;;;;2.30;67.54;101607.97;5052770;28;45488;-73
2022/02/13 03:38:39;;;;;;;;;22.00;16.75;;;;;2.29;67.40;101598.44;5053120;28;45554;-73
2022/02/13 03:41:05;;;;;;;;;24.25;19.75;;;;;2.31;67.62;101596.75;5054438;28;45548;-73
2022/02/13 03:43:30;;;;;;;;;17.50;17.25;;;;;2.30;67.78;101588.97;5051700;28;45438;-73
2022/02/13 03:45:56;;;;;;;;;17.00;16.00;;;;;2.30;67.92;101589.81;5052970;28;45488;-73
2022/02/13 03:48:21;;;;;;;;;23.25;16.25;;;;;2.31;67.63;101593.28;5052652;28;45417;-73
2022/02/13 03:50:46;;;;;;;;;25.00;19.00;;;;;2.31;67.58;101586.34;5050670;28;45467;-73
2022/02/13 03:53:11;;;;;;;;;29.00;23.50;;;;;2.30;67.43;101592.41;5053644;28;45317;-73
2022/02/13 03:55:37;;;;;;;;;22.25;19.50;;;;;2.31;67.57;101591.56;5052728;28;45293;-73
2022/02/13 03:58:02;;;;;;;;;22.25;18.25;;;;;2.30;67.66;101582.03;5051479;28;46257;-73
2022/02/13 04:00:28;;;;;;;;;17.50;14.25;;;;;2.31;67.96;101576.00;5052645;28;45419;-73
2022/02/13 04:02:55;;;;;;;;;21.25;17.00;;;;;2.32;68.11;101574.25;5052549;28;45427;-73
2022/02/13 04:05:22;;;;;;;;;18.50;14.25;;;;;2.31;67.81;101573.38;5052994;28;49626;-73
2022/02/13 04:07:47;;;;;;;;;22.25;18.00;;;;;2.30;67.97;101574.25;5054226;28;46022;-73
2022/02/13 04:10:13;;;;;;;;;14.00;14.00;;;;;2.32;68.03;101569.06;5052945;28;45361;-73
2022/02/13 04:12:39;;;;;;;;;13.25;12.25;;;;;2.33;68.08;101570.78;5052413;28;45589;-73
2022/02/13 04:15:05;;;;;;;;;23.25;15.00;;;;;2.32;67.87;101566.47;5051990;28;45501;-73
2022/02/13 04:17:30;;;;;;;;;22.50;17.00;;;;;2.33;67.81;101570.78;5052632;28;45369;-73
2022/02/13 04:19:55;;;;;;;;;20.25;16.25;;;;;2.33;67.90;101570.78;5070312;28;45557;-73
2022/02/13 04:22:21;;;;;;;;;17.00;15.50;;;;;2.36;67.98;101568.22;5052403;28;45530;-73
2022/02/13 04:24:46;;;;;;;;;22.25;15.75;;;;;2.32;67.59;101558.69;5052429;28;45462;-72
2022/02/13 04:27:11;;;;;;;;;20.25;16.25;;;;;2.35;67.52;101572.56;5052453;28;46148;-73
2022/02/13 04:29:37;;;;;;;;;20.67;15.33;;;;;2.35;67.85;101562.19;5052252;28;45436;-72
2022/02/13 04:32:02;;;;;;;;;18.00;14.67;;;;;2.35;67.89;101558.72;5054326;28;45531;-73
2022/02/13 04:34:28;;;;;;;;;15.75;14.00;;;;;2.36;67.91;101565.63;5051399;28;45545;-73
2022/02/13 04:36:53;;;;;;;;;21.00;15.50;;;;;2.35;67.75;101556.13;5051752;28;47235;-73
2022/02/13 04:39:18;;;;;;;;;22.00;16.00;;;;;2.32;67.70;101550.91;5052259;28;49458;-73
2022/02/13 04:41:43;;;;;;;;;20.33;13.00;;;;;2.35;67.86;101554.41;5052681;28;47467;-73
2022/02/13 04:44:09;;;;;;;;;23.00;16.33;;;;;2.33;67.53;101545.72;5052266;28;58100;-72
2022/02/13 04:46:34;;;;;;;;;21.50;16.25;;;;;2.32;67.56;101546.59;5053180;28;45386;-72
2022/02/13 04:49:00;;;;;;;;;16.25;14.25;;;;;2.34;67.59;101533.63;5052162;28;46008;-73
2022/02/13 04:51:25;;;;;;;;;20.75;14.00;;;;;2.32;67.70;101531.03;5051383;28;45433;-73
2022/02/13 04:53:50;;;;;;;;;21.75;17.00;;;;;2.27;67.88;101517.19;5050755;28;45371;-73
2022/02/13 04:56:16;;;;;;;;;19.25;16.00;;;;;2.32;67.67;101522.38;5052176;28;46058;-73
2022/02/13 04:58:42;;;;;;;;;19.75;16.50;;;;;2.28;67.94;101521.50;5053939;28;45475;-73
2022/02/13 05:01:08;;;;;;;;;22.50;11.25;;;;;2.26;67.69;101512.84;5053977;28;45508;-73
2022/02/13 05:03:33;;;;;;;;;16.75;12.25;;;;;2.29;68.01;101504.19;5055628;28;45723;-73
2022/02/13 05:05:58;;;;;;;;;21.00;16.75;;;;;2.29;67.72;101504.19;5054752;28;52598;-73
2022/02/13 05:08:24;;;;;;;;;14.75;13.75;;;;;2.28;67.68;101502.47;5056054;28;45398;-73
2022/02/13 05:10:49;;;;;;;;;19.50;16.75;;;;;2.28;67.59;101500.75;5057473;28;45746;-73
2022/02/13 05:13:15;;;;;;;;;21.25;18.25;;;;;2.27;67.52;101501.63;5053157;28;45512;-73
2022/02/13 05:15:40;;;;;;;;;22.50;16.00;;;;;2.27;67.59;101493.84;5055176;28;45304;-73
2022/02/13 05:18:05;;;;;;;;;19.00;16.00;;;;;2.27;67.83;101495.56;5055170;28;45656;-73
2022/02/13 05:20:31;;;;;;;;;20.00;15.00;;;;;2.28;67.56;101492.09;5054969;28;45356;-73
2022/02/13 05:22:57;;;;;;;;;16.00;16.00;;;;;2.27;67.65;101493.84;5056775;28;52867;-73
2022/02/13 05:25:24;;;;;;;;;19.50;17.25;;;;;2.25;67.83;101480.00;5054293;28;47011;-73
2022/02/13 05:27:49;;;;;;;;;18.50;15.75;;;;;2.24;67.47;101478.25;5055401;28;45766;-73
2022/02/13 05:30:15;;;;;;;;;19.00;12.75;;;;;2.22;67.51;101479.13;5055038;28;45289;-73
2022/02/13 05:32:40;;;;;;;;;22.75;14.75;;;;;2.20;67.59;101471.34;5055273;28;45394;-73
2022/02/13 05:35:06;;;;;;;;;34.00;27.00;;;;;2.20;67.52;101473.94;5056436;28;45890;-73
2022/02/13 05:37:31;;;;;;;;;16.50;10.00;;;;;2.18;67.96;101473.03;5055263;28;45527;-73
2022/02/13 05:39:57;;;;;;;;;19.50;15.00;;;;;2.17;68.08;101468.72;5055076;28;45856;-73
2022/02/13 05:42:24;;;;;;;;;18.50;16.00;;;;;2.13;67.98;101460.94;5054756;28;45554;-73
2022/02/13 05:44:54;;;;;;;;;16.75;14.25;;;;;2.14;68.13;101460.06;5052863;28;47106;-73
2022/02/13 05:47:19;;;;;;;;;20.00;17.75;;;;;2.12;67.84;101452.28;5055023;28;45340;-73
2022/02/13 05:49:45;;;;;;;;;17.50;13.50;;;;;2.08;67.97;101450.53;5055999;28;45290;-73
2022/02/13 05:52:10;;;;;;;;;22.50;17.25;;;;;2.06;67.78;101441.91;5053688;28;45437;-73
2022/02/13 05:54:36;;;;;;;;;20.00;16.00;;;;;2.01;67.75;101441.88;5053304;28;46993;-73
2022/02/13 05:57:01;;;;;;;;;21.25;16.25;;;;;2.04;68.00;101448.81;5055210;28;45643;-73
2022/02/13 05:59:27;;;;;;;;;15.75;13.00;;;;;2.03;68.09;101450.53;5055006;28;45518;-73
2022/02/13 06:01:53;;;;;;;;;23.25;17.25;;;;;2.04;67.67;101448.81;5056543;28;45529;-73
2022/02/13 06:04:20;;;;;;;;;20.25;16.50;;;;;2.05;68.17;101445.38;5053764;28;45499;-73
2022/02/13 06:06:47;;;;;;;;;17.25;15.00;;;;;2.03;68.10;101447.94;5054374;28;45832;-73
2022/02/13 06:09:12;;;;;;;;;18.50;17.50;;;;;2.05;67.90;101445.38;5053578;28;45380;-73
2022/02/13 06:11:38;;;;;;;;;18.75;15.50;;;;;2.04;68.00;101448.81;5054669;28;45223;-73
2022/02/13 06:14:03;;;;;;;;;22.33;19.00;;;;;2.03;67.96;101447.06;5054328;28;52162;-73
2022/02/13 06:16:28;;;;;;;;;22.75;19.25;;;;;2.01;68.05;101436.69;5054763;28;45490;-73
2022/02/13 06:18:54;;;;;;;;;23.75;19.00;;;;;2.02;68.27;101445.34;5054022;28;45482;-73
2022/02/13 06:21:21;;;;;;;;;31.75;21.50;;;;;1.98;68.06;101436.69;5054221;28;45563;-73
2022/02/13 06:23:47;;;;;;;;;21.50;20.00;;;;;2.02;68.08;101440.16;5053951;28;47379;-73
2022/02/13 06:26:14;;;;;;;;;34.50;27.50;;;;;2.02;68.08;101425.47;5054845;28;46041;-73
2022/02/13 06:28:40;;;;;;;;;40.75;29.75;;;;;1.98;68.27;101423.72;5056088;28;45396;-73
2022/02/13 06:31:05;;;;;;;;;20.75;19.50;;;;;2.03;68.30;101434.09;5052736;28;45598;-73
2022/02/13 06:33:30;;;;;;;;;18.75;13.75;;;;;2.04;68.52;101433.28;5053235;28;46360;-73
2022/02/13 06:35:56;;;;;;;;;23.50;19.50;;;;;2.05;68.70;101441.03;5054688;28;45523;-73
2022/02/13 06:38:21;;;;;;;;;21.75;15.50;;;;;2.09;68.10;101447.13;5054645;28;45648;-73
2022/02/13 06:40:47;;;;;;;;;23.75;15.50;;;;;2.09;68.47;101450.56;5053346;28;45440;-73
2022/02/13 06:43:12;;;;;;;;;24.00;18.75;;;;;2.10;68.55;101446.25;5053616;28;45651;-73
2022/02/13 06:45:38;;;;;;;;;19.00;17.25;;;;;2.12;68.50;101441.91;5053910;28;45534;-73
2022/02/13 06:48:04;;;;;;;;;21.50;17.50;;;;;2.15;68.24;101441.09;5068908;28;45473;-73
2022/02/13 06:50:30;;;;;;;;;20.75;14.75;;;;;2.21;68.20;101436.78;5050377;28;45472;-73
2022/02/13 06:52:55;;;;;;;;;17.25;14.50;;;;;2.28;68.01;101424.66;5054917;28;46218;-73
2022/02/13 06:55:21;;;;;;;;;20.00;13.00;;;;;2.28;68.38;101409.13;5054089;28;45448;-73
2022/02/13 06:57:48;;;;;;;;;18.50;18.25;;;;;2.39;68.12;101410.00;5051832;28;45483;-73
2022/02/13 07:00:15;;;;;;;;;20.50;19.00;;;;;2.47;68.07;101410.00;5053918;28;45447;-73
2022/02/13 07:02:41;;;;;;;;;19.75;17.50;;;;;2.50;67.79;101403.06;5053132;28;46509;-73
2022/02/13 07:05:08;;;;;;;;;17.50;13.75;;;;;2.53;68.16;101392.72;5054925;28;45420;-73
2022/02/13 07:07:34;;;;;;;;;21.75;17.50;;;;;2.54;67.97;101390.97;5054320;28;45245;-73
2022/02/13 07:09:59;;;;;;;;;18.75;17.50;;;;;2.54;67.82;101393.56;5053665;28;45467;-73
2022/02/13 07:12:24;;;;;;;;;22.67;20.33;;;;;2.49;67.96;101379.75;5052927;28;51961;-73
2022/02/13 07:14:50;;;;;;;;;27.33;18.67;;;;;2.56;67.79;101391.88;5053271;28;50555;-73
2022/02/13 07:17:15;;;;;;;;;16.00;15.75;;;;;2.54;67.47;101390.97;5053321;28;45262;-73
2022/02/13 07:19:40;;;;;;;;;18.25;17.00;;;;;2.57;67.64;101381.47;5055813;28;45226;-73
2022/02/13 07:22:06;;;;;;;;;24.75;14.75;;;;;2.58;67.78;101385.81;5052848;28;45354;-73
2022/02/13 07:24:34;;;;;;;;;16.75;12.75;;;;;2.62;67.83;101389.28;5051981;28;45400;-73
2022/02/13 07:26:59;;;;;;;;;17.75;15.50;;;;;2.64;67.50;101387.53;5052901;28;45560;-72
2022/02/13 07:29:25;;;;;;;;;13.00;13.00;;;;;2.67;67.37;101386.69;5053593;28;45461;-73
2022/02/13 07:31:50;;;;;;;;;22.00;16.50;;;;;2.71;67.42;101386.66;5054693;28;45425;-73
2022/02/13 07:34:15;;;;;;;;;26.50;20.25;;;;;2.77;67.47;101381.47;5052752;28;45557;-73
2022/02/13 07:36:42;;;;;;;;;23.00;17.50;;;;;2.83;67.59;101381.47;5054337;28;45524;-73
2022/02/13 07:39:07;;;;;;;;;25.75;19.25;;;;;2.95;67.61;101387.50;5053218;28;45466;-73
2022/02/13 07:41:32;;;;;;;;;27.00;19.67;;;;;3.08;67.55;101379.72;5053260;28;46777;-73
2022/02/13 07:43:58;;;;;;;;;17.25;17.00;;;;;3.35;67.63;101380.50;5054748;28;45431;-73
2022/02/13 07:46:23;;;;;;;;;19.00;17.50;;;;;3.66;66.67;101382.13;5052431;28;45293;-73
2022/02/13 07:48:49;;;;;;;;;16.25;13.00;;;;;3.90;66.25;101381.13;5051654;28;45328;-73
2022/02/13 07:51:15;;;;;;;;;26.50;19.75;;;;;4.01;65.84;101382.81;5052833;28;45586;-73
2022/02/13 07:53:41;;;;;;;;;13.25;7.00;;;;;4.05;65.57;101384.53;5052818;28;45417;-73
2022/02/13 07:56:08;;;;;;;;;19.25;15.75;;;;;4.05;65.22;101384.53;5054818;28;45404;-73
2022/02/13 07:58:34;;;;;;;;;17.25;16.75;;;;;4.07;65.47;101380.16;5053919;28;45548;-73
2022/02/13 08:01:00;;;;;;;;;25.50;19.00;;;;;4.08;65.37;101371.53;5052195;28;45953;-73
2022/02/13 08:03:26;;;;;;;;;26.25;16.75;;;;;4.16;65.01;101369.72;5052258;28;45569;-73
2022/02/13 08:05:51;;;;;;;;;21.75;19.25;;;;;4.32;65.20;101362.66;5050710;28;45558;-73
2022/02/13 08:08:17;;;;;;;;;25.50;19.75;;;;;4.70;65.44;101347.63;5053270;28;45549;-73
2022/02/13 08:10:42;;;;;;;;;25.75;20.50;;;;;5.26;64.71;101340.09;5054677;28;45289;-73
2022/02/13 08:13:08;;;;;;;;;22.50;17.00;;;;;5.88;64.28;101340.19;5052607;28;45334;-73
2022/02/13 08:15:33;;;;;;;;;25.50;20.25;;;;;6.84;63.91;101323.03;5051031;28;45395;-73
2022/02/13 08:18:10;;;;;;;;;17.75;14.50;;;;;7.99;61.75;101310.22;5051530;28;45490;-73
2022/02/13 08:20:36;;;;;;;;;24.25;21.25;;;;;8.52;59.98;101315.94;5042950;28;47039;-75
2022/02/13 08:23:01;;;;;;;;;27.50;21.50;;;;;9.02;59.16;101305.88;5054600;28;45648;-75
2022/02/13 08:25:26;;;;;;;;;19.50;19.00;;;;;9.71;59.29;101296.00;5049718;28;45493;-75
2022/02/13 08:27:52;;;;;;;;;27.75;16.75;;;;;10.39;57.03;101286.00;5052742;28;45445;-75
2022/02/13 08:30:18;;;;;;;;;30.50;22.00;;;;;10.96;57.13;101286.63;5052122;28;45727;-72
2022/02/13 08:32:43;;;;;;;;;27.50;19.75;;;;;11.59;55.53;101271.13;5065303;28;45388;-75
2022/02/13 08:35:09;;;;;;;;;28.50;23.50;;;;;12.08;53.85;101274.53;5050045;28;45491;-74
2022/02/13 08:37:34;;;;;;;;;25.75;23.50;;;;;12.32;53.13;101262.09;5052557;28;45586;-73
2022/02/13 08:40:00;;;;;;;;;17.50;15.00;;;;;12.74;52.68;101262.06;5050374;28;46054;-72
2022/02/13 08:42:25;;;;;;;;;39.00;25.00;;;;;13.22;51.99;101261.69;5055776;28;45458;-72
2022/02/13 08:44:50;;;;;;;;;24.75;20.75;;;;;13.64;51.16;101252.72;5053975;28;45461;-72
2022/02/13 08:47:16;;;;;;;;;23.00;17.50;;;;;13.76;49.72;101253.91;5059708;28;45467;-72
2022/02/13 08:49:42;;;;;;;;;26.00;22.00;;;;;13.98;49.47;101248.44;5057864;28;46237;-72
2022/02/13 08:52:08;;;;;;;;;28.75;22.75;;;;;14.46;50.51;101244.25;5054044;28;45392;-72
2022/02/13 08:54:34;;;;;;;;;25.50;19.25;;;;;15.11;48.49;101251.44;5051923;28;45258;-72
2022/02/13 08:57:00;;;;;;;;;28.00;22.50;;;;;15.57;47.84;101248.09;5057410;28;45494;-72
2022/02/13 08:59:25;;;;;;;;;23.75;19.75;;;;;15.87;47.49;101243.75;5055197;27;45553;-72
2022/02/13 09:01:51;;;;;;;;;22.00;16.50;;;;;16.65;46.62;101232.97;5055521;28;45569;-72
2022/02/13 09:04:16;;;;;;;;;28.00;21.75;;;;;17.08;45.24;101235.72;5055788;28;45674;-72
2022/02/13 09:06:41;;;;;;;;;26.00;23.00;;;;;17.18;44.51;101229.72;5054083;28;45384;-72
2022/02/13 09:09:09;;;;;;;;;23.50;21.25;;;;;17.03;44.48;101219.22;5053671;28;47181;-72
2022/02/13 09:11:34;;;;;;;;;25.75;22.75;;;;;17.18;43.81;101228.88;5053379;28;45463;-72
2022/02/13 09:14:03;;;;;;;;;27.00;20.25;;;;;17.43;44.90;101221.03;5057139;28;47151;-73
2022/02/13 09:16:28;;;;;;;;;22.00;19.00;;;;;17.69;42.85;101216.69;5054087;28;45606;-72
2022/02/13 09:18:54;;;;;;;;;23.75;23.00;;;;;18.08;43.10;101222.22;5053001;28;45975;-72
2022/02/13 09:21:20;;;;;;;;;30.75;22.00;;;;;18.71;42.40;101219.66;5055717;28;45356;-72
2022/02/13 09:23:45;;;;;;;;;26.25;22.50;;;;;19.33;42.58;101210.88;5054291;28;45603;-73
2022/02/13 09:26:11;;;;;;;;;26.00;23.00;;;;;19.83;41.45;101200.13;5059034;28;45650;-72
2022/02/13 09:28:37;;;;;;;;;25.75;20.75;;;;;20.43;41.25;101209.81;5051120;28;46099;-72
2022/02/13 09:31:04;;;;;;;;;24.00;21.25;;;;;21.23;40.07;101197.25;5053658;28;45457;-73
2022/02/13 09:33:29;;;;;;;;;24.25;23.50;;;;;22.14;39.01;101199.63;5053717;28;45360;-72
2022/02/13 09:35:55;;;;;;;;;23.00;22.50;;;;;22.83;38.36;101192.84;5053737;28;45631;-73
2022/02/13 09:38:23;;;;;;;;;30.00;21.50;;;;;23.58;37.54;101178.97;5055166;28;45316;-72
2022/02/13 09:40:48;;;;;;;;;25.75;23.25;;;;;24.30;37.12;101184.94;5055777;28;45243;-72
2022/02/13 09:43:15;;;;;;;;;25.50;23.25;;;;;24.96;35.57;101174.16;5054697;28;45400;-72
2022/02/13 09:45:42;;;;;;;;;25.50;24.50;;;;;25.70;35.43;101168.63;5052555;28;45541;-73
2022/02/13 09:48:12;;;;;;;;;30.50;24.75;;;;;26.33;34.50;101158.72;5054633;28;46618;-73
2022/02/13 09:50:38;;;;;;;;;27.50;22.00;;;;;26.85;33.42;101150.63;5052852;28;45876;-73
2022/02/13 09:53:05;;;;;;;;;22.75;21.00;;;;;27.15;32.50;101133.94;5056582;28;45385;-73
2022/02/13 09:55:31;;;;;;;;;22.50;21.75;;;;;27.27;32.05;101135.31;5053855;28;45373;-73
2022/02/13 09:58:00;;;;;;;;;20.50;19.75;;;;;27.27;31.39;101127.19;5050629;28;47399;-73
2022/02/13 10:00:52;;;;;;;;;26.50;23.25;;;;;27.48;31.25;101112.41;5052786;28;45817;-73
2022/02/13 10:03:20;;;;;;;;;29.00;24.00;;;;;27.37;31.04;101108.16;5043011;28;48192;-72
2022/02/13 10:05:46;;;;;;;;;23.75;21.25;;;;;27.46;30.82;101096.38;5053645;28;45595;-72
2022/02/13 10:08:11;;;;;;;;;29.25;24.00;;;;;27.19;30.37;101097.50;5055529;28;45746;-73
2022/02/13 10:10:37;;;;;;;;;24.25;23.00;;;;;26.50;30.58;101102.09;5053233;28;45435;-72
2022/02/13 10:13:04;;;;;;;;;23.00;21.00;;;;;25.76;30.11;101097.19;5054309;28;45888;-73
2022/02/13 10:15:33;;;;;;;;;23.75;22.50;;;;;24.79;31.85;101086.22;5051455;28;45498;-73
2022/02/13 10:18:04;;;;;;;;;18.75;18.75;;;;;24.04;31.55;101083.50;5049866;28;47097;-73
2022/02/13 10:20:37;;;;;;;;;15.75;15.75;;;;;23.15;32.38;101075.59;5048219;28;45746;-72
2022/02/13 10:23:10;;;;;;;;;18.00;17.75;;;;;22.06;33.42;101073.56;5051583;28;45774;-71
2022/02/13 10:25:36;;;;;;;;;27.25;21.25;;;;;21.27;34.09;101067.72;5066433;28;45503;-72
2022/02/13 10:28:12;;;;;;;;;21.75;18.75;;;;;20.82;35.02;101062.50;5051583;28;46396;-71
2022/02/13 10:30:41;;;;;;;;;17.25;15.50;;;;;20.61;36.06;101060.69;5052693;28;45482;-72
2022/02/13 10:33:24;;;;;;;;;20.75;19.75;;;;;20.41;36.19;101060.47;5050274;28;45570;-72
2022/02/13 10:36:06;;;;;;;;;23.50;22.00;;;;;20.04;36.25;101051.78;5049493;28;45859;-72
2022/02/13 10:38:33;;;;;;;;;23.50;18.00;;;;;19.71;37.11;101047.25;5061263;28;46394;-72
2022/02/13 10:41:12;;;;;;;;;12.25;10.25;;;;;19.49;37.67;101040.84;5047040;28;45443;-70
2022/02/13 10:44:03;;;;;;;;;23.50;18.50;;;;;19.36;37.86;101048.06;5051410;28;45359;-70
2022/02/13 10:46:34;;;;;;;;;21.50;17.75;;;;;19.36;38.42;101042.72;5053309;28;45570;-71
2022/02/13 10:49:01;;;;;;;;;25.00;19.00;;;;;19.21;38.00;101035.88;5052772;28;46358;-71
2022/02/13 10:51:26;;;;;;;;;19.25;16.00;;;;;19.04;38.85;101037.13;5051348;28;45463;-71
2022/02/13 10:53:53;;;;;;;;;23.50;18.00;;;;;18.82;38.71;101019.22;5054919;28;45881;-71
2022/02/13 10:56:19;;;;;;;;;26.50;18.25;;;;;18.68;39.52;101012.22;5063845;28;45630;-71
2022/02/13 10:58:45;;;;;;;;;17.00;13.75;;;;;18.49;39.63;101015.34;5061725;28;45378;-71
2022/02/13 11:01:12;;;;;;;;;19.50;16.75;;;;;18.44;40.19;101008.66;5059808;28;45454;-71
2022/02/13 11:03:37;;;;;;;;;17.25;15.75;;;;;18.33;39.73;101001.44;5062903;27;45361;-71
2022/02/13 11:06:06;;;;;;;;;22.00;18.25;;;;;18.13;39.88;100992.19;5055873;28;45585;-71
2022/02/13 11:08:36;;;;;;;;;22.50;15.50;;;;;18.14;40.44;100979.75;5051596;28;46273;-72
2022/02/13 11:11:04;;;;;;;;;21.50;16.25;;;;;18.30;40.69;100979.50;5053801;28;45789;-70